Time;durP1;ratioP1;P1;durP2;ratioP2;P2;SDS_P1;SDS_P2;PMS_P1;PMS_P2;Temp;Humidity;BMP_temperature;BMP_pressure;BME280_temperature;BME280_humidity;BME280_pressure;Samples;Min_cycle;Max_cycle;Signal;HPM_P1;HPM_P2
2024/02/14 00:01:30;;;;;;;3.33;1.40;;;9.80;99.90;;;;;;4140931;28;20034;-61
2024/02/14 00:03:31;;;;;;;3.13;1.55;;;9.70;99.90;;;;;;4144664;28;20041;-61
2024/02/14 00:05:31;;;;;;;2.78;1.02;;;9.70;99.90;;;;;;4143144;28;20585;-60
2024/02/14 00:07:32;;;;;;;3.03;1.10;;;9.70;99.90;;;;;;4144063;28;20030;-60
2024/02/14 00:09:33;;;;;;;2.33;1.42;;;9.70;99.90;;;;;;4143767;28;20030;-60
2024/02/14 00:11:33;;;;;;;3.13;1.25;;;9.70;99.90;;;;;;4144227;28;20049;-61
2024/02/14 00:13:34;;;;;;;1.70;1.10;;;9.70;99.90;;;;;;4144157;28;20486;-60
2024/02/14 00:15:34;;;;;;;4.18;1.55;;;9.70;99.90;;;;;;4147941;28;20037;-61
2024/02/14 00:17:35;;;;;;;3.15;1.20;;;9.70;99.90;;;;;;4143329;28;20537;-61
2024/02/14 00:19:36;;;;;;;2.15;1.02;;;9.70;99.90;;;;;;4143308;28;20092;-60
2024/02/14 00:21:38;;;;;;;3.65;1.33;;;9.70;99.90;;;;;;4144426;28;20065;-60
2024/02/14 00:23:38;;;;;;;1.60;1.00;;;9.70;99.90;;;;;;4147039;28;20052;-60
2024/02/14 00:25:39;;;;;;;2.42;1.35;;;9.70;99.90;;;;;;4142340;28;20030;-60
2024/02/14 00:27:40;;;;;;;2.33;1.27;;;9.70;99.90;;;;;;4143416;28;20073;-60
2024/02/14 00:29:44;;;;;;;2.28;1.38;;;9.70;99.90;;;;;;4144752;28;20048;-61
2024/02/14 00:31:45;;;;;;;1.77;1.05;;;9.70;99.90;;;;;;4144770;28;20041;-60
2024/02/14 00:33:46;;;;;;;2.05;1.10;;;9.70;99.90;;;;;;4145424;28;20045;-60
2024/02/14 00:35:46;;;;;;;3.78;1.50;;;9.70;99.90;;;;;;4144544;28;21690;-60
2024/02/14 00:37:47;;;;;;;4.97;1.13;;;9.70;99.90;;;;;;4141076;28;20397;-60
2024/02/14 00:39:49;;;;;;;1.95;1.15;;;9.70;99.90;;;;;;4143742;28;20030;-68
2024/02/14 00:41:52;;;;;;;;;;;9.70;99.90;;;;;;4145714;28;20108;-67
2024/02/14 00:43:53;;;;;;;2.43;1.10;;;9.60;99.90;;;;;;4142090;28;20427;-68
2024/02/14 00:45:53;;;;;;;1.30;0.90;;;9.70;99.90;;;;;;4142798;28;20117;-68
2024/02/14 00:47:54;;;;;;;2.65;0.98;;;9.70;99.90;;;;;;4142868;28;20041;-68
2024/02/14 00:49:54;;;;;;;3.72;1.35;;;9.60;99.90;;;;;;4143556;28;20076;-68
2024/02/14 00:51:55;;;;;;;1.80;1.15;;;9.60;99.90;;;;;;4141674;28;20418;-67
2024/02/14 00:53:55;;;;;;;2.05;1.00;;;9.60;99.90;;;;;;4148378;28;20033;-67
2024/02/14 00:55:56;;;;;;;2.38;1.20;;;9.70;99.90;;;;;;4141393;28;20041;-68
2024/02/14 00:57:57;;;;;;;1.52;0.98;;;9.70;99.90;;;;;;4143044;28;20712;-68
2024/02/14 00:59:57;;;;;;;3.67;1.05;;;9.70;99.90;;;;;;4145263;28;20057;-68
2024/02/14 01:01:59;;;;;;;2.50;1.17;;;9.70;99.90;;;;;;4141407;28;20092;-68
2024/02/14 01:03:59;;;;;;;2.15;1.10;;;9.70;99.90;;;;;;4143949;28;20030;-68
2024/02/14 01:06:00;;;;;;;1.45;0.98;;;9.70;99.90;;;;;;4142263;28;20049;-68
2024/02/14 01:08:00;;;;;;;2.08;1.27;;;9.70;99.90;;;;;;4142365;28;20046;-67
2024/02/14 01:10:02;;;;;;;2.00;0.90;;;9.70;99.90;;;;;;4127638;28;20046;-68
2024/02/14 01:12:03;;;;;;;3.92;1.20;;;9.70;99.90;;;;;;4141429;28;20525;-68
2024/02/14 01:14:04;;;;;;;3.67;1.63;;;9.70;99.90;;;;;;4144205;28;20053;-67
2024/02/14 01:16:05;;;;;;;2.88;1.38;;;9.70;99.90;;;;;;4150115;28;20384;-68
2024/02/14 01:18:05;;;;;;;2.95;1.48;;;9.70;99.90;;;;;;4145812;28;20034;-68
2024/02/14 01:20:10;;;;;;;3.45;1.10;;;9.70;99.90;;;;;;4138793;28;20083;-68
2024/02/14 01:22:10;;;;;;;2.95;1.20;;;9.80;99.90;;;;;;4142776;28;20050;-68
2024/02/14 01:24:12;;;;;;;2.55;1.00;;;9.80;99.90;;;;;;4142459;28;20057;-68
2024/02/14 01:26:12;;;;;;;1.35;0.95;;;9.80;99.90;;;;;;4143584;28;20082;-68
2024/02/14 01:28:13;;;;;;;1.80;1.20;;;9.80;99.90;;;;;;4142536;28;20077;-68
2024/02/14 01:30:14;;;;;;;3.53;1.52;;;9.80;99.90;;;;;;4145457;28;20034;-68
2024/02/14 01:32:15;;;;;;;2.42;1.20;;;9.90;99.90;;;;;;4146589;28;20389;-68
2024/02/14 01:34:15;;;;;;;2.08;1.42;;;9.80;99.90;;;;;;4141645;28;20035;-68
2024/02/14 01:36:16;;;;;;;2.65;1.20;;;9.90;99.90;;;;;;4141952;28;20045;-68
2024/02/14 01:38:17;;;;;;;1.88;1.20;;;9.90;99.90;;;;;;4143786;28;20068;-68
2024/02/14 01:40:17;;;;;;;2.03;1.10;;;9.90;99.90;;;;;;4145096;28;20037;-68
2024/02/14 01:42:18;;;;;;;1.65;1.30;;;9.90;99.90;;;;;;4143275;28;20092;-68
2024/02/14 01:44:20;;;;;;;1.73;1.15;;;9.90;99.90;;;;;;4145769;28;20034;-68
2024/02/14 01:46:21;;;;;;;1.85;1.17;;;9.90;99.90;;;;;;4143861;28;20042;-68
2024/02/14 01:48:21;;;;;;;2.45;1.13;;;10.00;99.90;;;;;;4142541;28;20037;-68
2024/02/14 01:50:28;;;;;;;3.22;1.27;;;10.00;99.90;;;;;;4145771;28;20245;-67
2024/02/14 01:52:29;;;;;;;1.63;0.88;;;10.00;99.90;;;;;;4144547;28;20033;-67
2024/02/14 01:54:30;;;;;;;2.63;1.50;;;10.00;99.90;;;;;;4143285;28;20034;-67
2024/02/14 01:56:31;;;;;;;2.53;1.02;;;10.00;99.90;;;;;;4143710;28;20042;-68
2024/02/14 01:58:33;;;;;;;4.88;1.65;;;10.00;99.90;;;;;;4143072;28;20591;-67
2024/02/14 02:00:35;;;;;;;2.45;1.40;;;10.00;99.90;;;;;;4141735;28;20042;-67
2024/02/14 02:02:39;;;;;;;3.08;1.23;;;10.00;99.90;;;;;;4139633;28;20112;-67
2024/02/14 02:04:40;;;;;;;1.95;1.25;;;10.00;99.90;;;;;;4144345;28;20494;-67
2024/02/14 02:06:41;;;;;;;4.18;1.25;;;10.00;99.90;;;;;;4142486;28;20034;-67
2024/02/14 02:08:45;;;;;;;2.45;1.35;;;10.00;99.90;;;;;;4145592;28;20444;-67
2024/02/14 02:10:46;;;;;;;3.05;1.48;;;10.10;99.90;;;;;;4147389;28;20034;-67
2024/02/14 02:12:46;;;;;;;2.03;1.13;;;10.10;99.90;;;;;;4146333;28;20057;-67
2024/02/14 02:14:47;;;;;;;3.40;1.42;;;10.00;99.90;;;;;;4150391;28;20034;-67
2024/02/14 02:16:49;;;;;;;3.03;1.30;;;10.10;99.90;;;;;;4149599;28;20030;-67
2024/02/14 02:18:49;;;;;;;3.53;1.33;;;10.10;99.90;;;;;;4145744;28;20402;-67
2024/02/14 02:20:50;;;;;;;3.58;1.20;;;10.10;99.90;;;;;;4130098;28;20086;-65
2024/02/14 02:22:51;;;;;;;1.98;1.00;;;10.10;99.90;;;;;;4147547;28;20034;-65
2024/02/14 02:24:51;;;;;;;1.63;1.10;;;10.10;99.90;;;;;;4147357;28;20041;-66
2024/02/14 02:26:52;;;;;;;1.65;1.13;;;10.10;99.90;;;;;;4146467;28;20113;-66
2024/02/14 02:28:52;;;;;;;1.70;1.23;;;10.20;99.90;;;;;;4148626;28;20034;-65
2024/02/14 02:30:55;;;;;;;3.30;1.20;;;10.20;99.90;;;;;;4145871;28;20100;-65
2024/02/14 02:32:56;;;;;;;3.58;1.40;;;10.20;99.90;;;;;;4145745;28;20041;-66
2024/02/14 02:34:57;;;;;;;3.63;1.10;;;10.20;99.90;;;;;;4147202;28;20034;-66
2024/02/14 02:36:58;;;;;;;2.10;1.30;;;10.20;99.90;;;;;;4147380;28;20037;-66
2024/02/14 02:39:00;;;;;;;3.10;1.65;;;10.20;99.90;;;;;;4146972;28;20042;-65
2024/02/14 02:41:00;;;;;;;1.98;1.13;;;10.20;99.90;;;;;;4145004;28;20066;-65
2024/02/14 02:43:01;;;;;;;3.70;1.50;;;10.20;99.90;;;;;;4145554;28;20051;-67
2024/02/14 02:45:05;;;;;;;3.05;1.33;;;10.20;99.90;;;;;;4148835;28;20046;-66
2024/02/14 02:47:06;;;;;;;2.05;1.13;;;10.20;99.90;;;;;;4147214;28;20445;-66
2024/02/14 02:49:06;;;;;;;1.88;1.20;;;10.20;99.90;;;;;;4144919;28;20042;-65
2024/02/14 02:51:07;;;;;;;2.05;1.30;;;10.20;99.90;;;;;;4143669;28;20042;-66
2024/02/14 02:53:07;;;;;;;1.40;1.13;;;10.20;99.90;;;;;;4146053;28;20446;-66
2024/02/14 02:55:08;;;;;;;3.88;1.70;;;10.30;99.90;;;;;;4144411;28;20038;-66
2024/02/14 02:57:10;;;;;;;3.10;1.50;;;10.20;99.90;;;;;;4144525;28;20512;-66
2024/02/14 02:59:11;;;;;;;2.50;1.60;;;10.20;99.90;;;;;;4145038;28;20100;-60
2024/02/14 03:01:12;;;;;;;4.25;1.60;;;10.30;99.90;;;;;;4144103;28;20477;-68
2024/02/14 03:03:13;;;;;;;1.98;1.52;;;10.20;99.90;;;;;;4147482;28;20092;-68
2024/02/14 03:05:17;;;;;;;4.22;1.60;;;10.20;99.90;;;;;;4142357;28;20058;-68
2024/02/14 03:07:19;;;;;;;2.70;1.55;;;10.20;99.90;;;;;;4142263;28;20034;-68
2024/02/14 03:09:20;;;;;;;2.55;1.52;;;10.20;99.90;;;;;;4147288;28;20122;-68
2024/02/14 03:11:21;;;;;;;2.08;1.38;;;10.30;99.90;;;;;;4136405;28;20035;-68
2024/02/14 03:13:21;;;;;;;3.03;1.45;;;10.20;99.90;;;;;;4148652;28;20157;-68
2024/02/14 03:15:25;;;;;;;2.58;1.35;;;10.30;99.90;;;;;;4145459;28;20549;-68
2024/02/14 03:17:25;;;;;;;2.28;1.40;;;10.20;99.90;;;;;;4145976;28;20112;-68
2024/02/14 03:19:29;;;;;;;3.38;1.60;;;10.20;99.90;;;;;;4143678;28;20446;-68
2024/02/14 03:21:32;;;;;;;4.32;1.60;;;10.20;99.90;;;;;;4139983;28;20040;-68
2024/02/14 03:23:33;;;;;;;3.85;1.60;;;10.20;99.90;;;;;;4144370;28;20112;-68
2024/02/14 03:25:36;;;;;;;2.47;1.33;;;10.20;99.90;;;;;;4146927;28;20026;-68
2024/02/14 03:27:37;;;;;;;3.63;1.45;;;10.20;99.90;;;;;;4148088;28;20045;-68
2024/02/14 03:29:38;;;;;;;4.10;1.40;;;10.20;99.90;;;;;;4144402;28;20026;-66
2024/02/14 03:31:39;;;;;;;5.07;1.40;;;10.20;99.90;;;;;;4143288;28;20045;-66
2024/02/14 03:33:40;;;;;;;2.25;1.27;;;10.20;99.90;;;;;;4147569;28;20045;-66
2024/02/14 03:35:41;;;;;;;2.60;1.60;;;10.20;99.90;;;;;;4146213;28;20435;-66
2024/02/14 03:37:48;;;;;;;3.17;1.58;;;10.20;99.90;;;;;;4142440;28;20121;-65
2024/02/14 03:39:49;;;;;;;2.63;1.63;;;10.20;99.90;;;;;;4144112;28;20394;-65
2024/02/14 03:41:49;;;;;;;4.32;2.00;;;10.20;99.90;;;;;;4147552;28;20042;-65
2024/02/14 03:43:51;;;;;;;4.80;1.77;;;10.20;99.90;;;;;;4145743;28;20470;-65
2024/02/14 03:45:52;;;;;;;2.25;1.60;;;10.20;99.90;;;;;;4144167;28;20068;-65
2024/02/14 03:47:52;;;;;;;2.95;1.65;;;10.20;99.90;;;;;;4145562;28;20042;-65
2024/02/14 03:49:53;;;;;;;3.05;2.13;;;10.20;99.90;;;;;;4144977;28;20447;-65
2024/02/14 03:51:54;;;;;;;2.95;1.60;;;10.20;99.90;;;;;;4146782;28;20031;-66
2024/02/14 03:53:55;;;;;;;2.38;1.63;;;10.20;99.90;;;;;;4146834;28;20139;-65
2024/02/14 03:55:55;;;;;;;3.03;1.60;;;10.20;99.90;;;;;;4143010;28;20034;-65
2024/02/14 03:57:56;;;;;;;2.92;1.77;;;10.20;99.90;;;;;;4146002;28;20398;-66
2024/02/14 04:00:01;;;;;;;4.18;1.80;;;10.20;99.90;;;;;;4143648;28;20037;-66
2024/02/14 04:02:02;;;;;;;3.42;1.80;;;10.20;99.90;;;;;;4142439;28;20066;-67
2024/02/14 04:04:02;;;;;;;4.13;1.58;;;10.30;99.90;;;;;;4146369;28;20429;-65
2024/02/14 04:06:03;;;;;;;3.50;1.77;;;10.20;99.90;;;;;;4144762;28;20505;-66
2024/02/14 04:08:04;;;;;;;2.80;1.60;;;10.30;99.90;;;;;;4143391;28;20034;-66
2024/02/14 04:10:06;;;;;;;3.90;1.83;;;10.30;99.90;;;;;;4144682;28;20061;-69
2024/02/14 04:12:07;;;;;;;2.22;1.73;;;10.30;99.90;;;;;;4144325;28;20052;-68
2024/02/14 04:14:07;;;;;;;2.58;1.70;;;10.30;99.90;;;;;;4144556;28;20042;-68
2024/02/14 04:16:08;;;;;;;2.83;1.60;;;10.30;99.90;;;;;;4142025;28;20179;-69
2024/02/14 04:18:09;;;;;;;2.38;1.48;;;10.30;99.90;;;;;;4141107;28;20053;-69
2024/02/14 04:20:10;;;;;;;4.07;2.05;;;10.40;99.90;;;;;;4138683;28;20117;-68
2024/02/14 04:22:10;;;;;;;3.63;1.58;;;10.30;99.90;;;;;;4141060;28;20096;-68
2024/02/14 04:24:11;;;;;;;3.40;1.92;;;10.30;99.90;;;;;;4145310;28;20479;-68
2024/02/14 04:26:19;;;;;;;3.72;1.80;;;10.40;99.90;;;;;;4141695;28;20192;-68
2024/02/14 04:28:20;;;;;;;2.67;1.58;;;10.40;99.90;;;;;;4142225;28;20509;-69
2024/02/14 04:30:21;;;;;;;3.42;1.90;;;10.40;99.90;;;;;;4143782;28;20042;-69
2024/02/14 04:32:22;;;;;;;3.20;2.05;;;10.40;99.90;;;;;;4144068;28;20082;-69
2024/02/14 04:34:23;;;;;;;5.00;1.73;;;10.40;99.90;;;;;;4143467;28;20109;-68
2024/02/14 04:36:24;;;;;;;4.57;2.22;;;10.40;99.90;;;;;;4140706;28;20034;-68
2024/02/14 04:38:24;;;;;;;9.38;1.70;;;10.40;99.90;;;;;;4143792;28;20044;-69
2024/02/14 04:40:25;;;;;;;4.53;2.05;;;10.40;99.90;;;;;;4140611;28;20101;-68
2024/02/14 04:42:26;;;;;;;3.55;1.73;;;10.40;99.90;;;;;;4145417;28;20478;-68
2024/02/14 04:44:26;;;;;;;4.30;1.83;;;10.50;99.90;;;;;;4143560;28;20065;-69
2024/02/14 04:46:27;;;;;;;3.35;1.60;;;10.40;99.90;;;;;;4142700;28;20038;-68
2024/02/14 04:48:27;;;;;;;3.15;1.83;;;10.40;99.90;;;;;;4144253;28;20060;-68
2024/02/14 04:50:30;;;;;;;4.32;1.92;;;10.40;99.90;;;;;;4142537;28;20045;-67
2024/02/14 04:52:30;;;;;;;2.72;1.92;;;10.50;99.90;;;;;;4141913;28;20199;-67
2024/02/14 04:54:31;;;;;;;3.65;2.00;;;10.40;99.90;;;;;;4143222;28;20030;-67
2024/02/14 04:56:32;;;;;;;4.28;1.50;;;10.50;99.90;;;;;;4145273;28;20092;-67
2024/02/14 04:58:32;;;;;;;2.65;1.90;;;10.50;99.90;;;;;;4141747;28;20030;-67
2024/02/14 05:00:33;;;;;;;6.57;1.90;;;10.50;99.90;;;;;;4143819;28;20034;-67
2024/02/14 05:02:34;;;;;;;2.10;1.58;;;10.50;99.90;;;;;;4142753;28;20059;-67
2024/02/14 05:04:37;;;;;;;2.70;1.70;;;10.50;99.90;;;;;;4141822;28;20034;-67
2024/02/14 05:06:38;;;;;;;1.88;1.55;;;10.50;99.90;;;;;;4139412;28;20124;-67
2024/02/14 05:08:39;;;;;;;3.70;1.80;;;10.50;99.90;;;;;;4137238;28;20393;-67
2024/02/14 05:10:39;;;;;;;4.82;1.80;;;10.50;99.90;;;;;;4142019;28;20038;-67
2024/02/14 05:12:40;;;;;;;2.55;1.60;;;10.50;99.90;;;;;;4143966;28;20064;-67
2024/02/14 05:14:41;;;;;;;3.85;2.33;;;10.50;99.90;;;;;;4146304;28;20471;-68
2024/02/14 05:16:41;;;;;;;4.40;1.83;;;10.50;99.90;;;;;;4140224;28;20057;-67
2024/02/14 05:18:42;;;;;;;4.22;1.75;;;10.50;99.90;;;;;;4140775;28;20457;-67
2024/02/14 05:20:43;;;;;;;3.72;1.60;;;10.50;99.90;;;;;;4137910;28;20042;-67
2024/02/14 05:22:44;;;;;;;3.65;1.88;;;10.50;99.90;;;;;;4140623;28;20033;-67
2024/02/14 05:24:44;;;;;;;2.95;1.58;;;10.60;99.90;;;;;;4140172;28;20717;-67
2024/02/14 05:26:45;;;;;;;2.90;1.73;;;10.60;99.90;;;;;;4139591;28;20041;-68
2024/02/14 05:28:46;;;;;;;5.38;1.80;;;10.50;99.90;;;;;;4140601;28;20095;-67
2024/02/14 05:30:46;;;;;;;3.05;1.58;;;10.50;99.90;;;;;;4136595;28;20113;-60
2024/02/14 05:32:47;;;;;;;3.25;1.70;;;10.50;99.90;;;;;;4141800;28;20046;-60
2024/02/14 05:34:48;;;;;;;3.95;1.85;;;10.50;99.90;;;;;;4144517;28;20505;-60
2024/02/14 05:36:48;;;;;;;5.63;2.20;;;10.50;99.90;;;;;;4148375;28;20034;-60
2024/02/14 05:38:49;;;;;;;3.28;2.10;;;10.60;99.90;;;;;;4142000;28;20113;-60
2024/02/14 05:40:50;;;;;;;4.38;2.17;;;10.60;99.90;;;;;;4144990;28;20041;-60
2024/02/14 05:42:50;;;;;;;2.17;1.63;;;10.50;99.90;;;;;;4143620;28;20077;-60
2024/02/14 05:44:51;;;;;;;2.58;1.75;;;10.50;99.90;;;;;;4145963;28;20124;-60
2024/02/14 05:46:52;;;;;;;2.20;2.00;;;10.50;99.90;;;;;;4145833;28;20391;-60
2024/02/14 05:48:53;;;;;;;5.45;1.90;;;10.50;99.90;;;;;;4143965;28;20034;-60
2024/02/14 05:50:54;;;;;;;3.30;1.90;;;10.60;99.90;;;;;;4143096;28;20052;-60
2024/02/14 05:52:55;;;;;;;2.50;1.60;;;10.60;99.90;;;;;;4143085;28;20038;-60
2024/02/14 05:54:56;;;;;;;5.05;2.15;;;10.60;99.90;;;;;;4141147;28;20034;-60
2024/02/14 05:56:57;;;;;;;4.47;1.90;;;10.60;99.90;;;;;;4143568;28;20092;-60
2024/02/14 05:58:58;;;;;;;3.95;2.03;;;10.60;99.90;;;;;;4141711;28;20060;-60
2024/02/14 06:00:58;;;;;;;3.90;2.28;;;10.60;99.90;;;;;;4141613;28;20034;-60
2024/02/14 06:02:59;;;;;;;3.10;1.90;;;10.60;99.90;;;;;;4145597;28;20041;-60
2024/02/14 06:04:59;;;;;;;4.00;2.30;;;10.60;99.90;;;;;;4149057;28;20108;-60
2024/02/14 06:07:00;;;;;;;3.63;2.25;;;10.50;99.90;;;;;;4148039;28;20109;-60
2024/02/14 06:09:01;;;;;;;4.18;2.10;;;10.50;99.90;;;;;;4145033;28;20479;-67
2024/02/14 06:11:01;;;;;;;3.33;2.08;;;10.50;99.90;;;;;;4146541;28;20589;-68
2024/02/14 06:13:02;;;;;;;4.85;2.15;;;10.50;99.90;;;;;;4147993;28;20053;-68
2024/02/14 06:15:03;;;;;;;3.20;2.10;;;10.60;99.90;;;;;;4145911;28;20466;-68
2024/02/14 06:17:04;;;;;;;5.63;2.13;;;10.60;99.90;;;;;;4142059;28;20036;-68
2024/02/14 06:19:05;;;;;;;4.13;2.30;;;10.50;99.90;;;;;;4146061;28;20038;-69
2024/02/14 06:21:06;;;;;;;5.38;2.40;;;10.50;99.90;;;;;;4144589;28;20442;-69
2024/02/14 06:23:07;;;;;;;4.38;2.25;;;10.60;99.90;;;;;;4142985;28;20038;-69
2024/02/14 06:25:08;;;;;;;3.60;2.13;;;10.50;99.90;;;;;;4150948;28;20056;-69
2024/02/14 06:27:08;;;;;;;3.08;2.03;;;10.50;99.90;;;;;;4141322;28;20042;-69
2024/02/14 06:29:09;;;;;;;3.13;1.90;;;10.50;99.90;;;;;;4146070;28;20057;-69
2024/02/14 06:31:10;;;;;;;2.28;1.67;;;10.50;99.90;;;;;;4141321;28;20049;-76
2024/02/14 06:33:10;;;;;;;5.53;2.90;;;10.60;99.90;;;;;;4139353;28;20534;-73
2024/02/14 06:35:11;;;;;;;4.38;2.08;;;10.50;99.90;;;;;;4144464;28;20040;-74
2024/02/14 06:37:12;;;;;;;3.97;2.55;;;10.50;99.90;;;;;;4152165;28;20465;-77
2024/02/14 06:39:12;;;;;;;3.08;2.10;;;10.50;99.90;;;;;;4142241;28;20472;-72
2024/02/14 06:41:13;;;;;;;2.95;1.83;;;10.50;99.90;;;;;;4144192;28;20431;-76
2024/02/14 06:43:14;;;;;;;2.47;1.90;;;10.50;99.90;;;;;;4145332;28;20042;-75
2024/02/14 06:45:14;;;;;;;3.22;1.65;;;10.60;99.90;;;;;;4142249;28;20042;-74
2024/02/14 06:47:15;;;;;;;5.78;2.65;;;10.60;99.90;;;;;;4145916;28;20030;-73
2024/02/14 06:49:17;;;;;;;5.90;2.28;;;10.60;99.90;;;;;;4141267;28;20034;-63
2024/02/14 06:51:17;;;;;;;3.17;2.00;;;10.50;99.90;;;;;;4142053;28;20124;-65
2024/02/14 06:53:18;;;;;;;3.78;2.47;;;10.60;99.90;;;;;;4144620;28;20500;-65
2024/02/14 06:55:19;;;;;;;3.22;2.30;;;10.60;99.90;;;;;;4140107;28;20038;-65
2024/02/14 06:57:19;;;;;;;3.00;2.17;;;10.60;99.90;;;;;;4145991;28;20482;-65
2024/02/14 06:59:20;;;;;;;2.13;1.90;;;10.60;99.90;;;;;;4150019;28;20040;-65
2024/02/14 07:01:23;;;;;;;3.35;2.30;;;10.60;99.90;;;;;;4145725;28;20041;-65
2024/02/14 07:03:24;;;;;;;3.63;2.30;;;10.60;99.90;;;;;;4148872;28;20132;-65
2024/02/14 07:05:25;;;;;;;3.80;2.42;;;10.60;99.90;;;;;;4144264;28;20644;-65
2024/02/14 07:07:27;;;;;;;6.38;2.58;;;10.60;99.90;;;;;;4148446;28;20080;-65
2024/02/14 07:09:28;;;;;;;3.88;2.10;;;10.60;99.90;;;;;;4145672;28;20042;-65
2024/02/14 07:11:29;;;;;;;4.35;2.65;;;10.60;99.90;;;;;;4141156;28;20450;-65
2024/02/14 07:13:30;;;;;;;3.38;2.13;;;10.60;99.90;;;;;;4150419;28;20030;-65
2024/02/14 07:15:30;;;;;;;4.60;2.38;;;10.60;99.90;;;;;;4148710;28;20650;-65
2024/02/14 07:17:31;;;;;;;4.68;2.60;;;10.60;99.90;;;;;;4144945;28;20073;-65
2024/02/14 07:19:31;;;;;;;4.55;2.40;;;10.60;99.90;;;;;;4147639;28;20458;-65
2024/02/14 07:21:33;;;;;;;2.70;2.13;;;10.60;99.90;;;;;;4144847;28;20121;-65
2024/02/14 07:23:36;;;;;;;4.68;2.33;;;10.60;99.90;;;;;;4150490;28;20112;-65
2024/02/14 07:25:37;;;;;;;3.08;2.28;;;10.70;99.90;;;;;;4147364;28;20034;-65
2024/02/14 07:27:37;;;;;;;3.97;2.67;;;10.70;99.90;;;;;;4145782;28;20026;-65
2024/02/14 07:29:38;;;;;;;4.35;2.22;;;10.60;99.90;;;;;;4142322;28;20034;-64
2024/02/14 07:31:38;;;;;;;4.28;2.67;;;10.70;99.90;;;;;;4145069;28;20034;-64
2024/02/14 07:33:39;;;;;;;5.55;2.50;;;10.70;99.90;;;;;;4149800;28;20076;-64
2024/02/14 07:35:40;;;;;;;4.15;2.42;;;10.70;99.90;;;;;;4146852;28;20390;-64
2024/02/14 07:37:42;;;;;;;3.72;2.30;;;10.70;99.90;;;;;;4140067;28;20059;-64
2024/02/14 07:39:42;;;;;;;5.60;2.78;;;10.70;99.90;;;;;;4146638;28;20438;-64
2024/02/14 07:41:43;;;;;;;5.72;2.63;;;10.70;99.90;;;;;;4141405;28;20049;-64
2024/02/14 07:43:43;;;;;;;5.55;2.80;;;10.70;99.90;;;;;;4147323;28;20382;-65
2024/02/14 07:45:44;;;;;;;4.32;2.70;;;10.70;99.90;;;;;;4144030;28;20046;-65
2024/02/14 07:47:45;;;;;;;3.85;2.30;;;10.80;99.90;;;;;;4143842;28;20053;-65
2024/02/14 07:49:46;;;;;;;4.85;2.75;;;10.80;99.90;;;;;;4146866;28;20467;-64
2024/02/14 07:51:46;;;;;;;5.47;2.65;;;10.80;99.90;;;;;;4137289;28;20103;-64
2024/02/14 07:53:49;;;;;;;2.60;1.95;;;10.80;99.90;;;;;;4143415;28;20494;-64
2024/02/14 07:55:49;;;;;;;3.60;2.40;;;10.80;99.90;;;;;;4144644;28;20042;-65
2024/02/14 07:57:50;;;;;;;6.43;2.97;;;10.80;99.90;;;;;;4142790;28;20033;-65
2024/02/14 07:59:51;;;;;;;6.43;2.40;;;10.80;99.90;;;;;;4146619;28;20117;-65
2024/02/14 08:01:52;;;;;;;3.63;2.38;;;10.90;99.90;;;;;;4145052;28;20449;-65
2024/02/14 08:03:52;;;;;;;3.13;1.98;;;10.90;99.90;;;;;;4149436;28;20388;-65
2024/02/14 08:05:53;;;;;;;3.83;2.60;;;10.90;99.90;;;;;;4151226;28;20493;-65
2024/02/14 08:07:54;;;;;;;4.53;2.17;;;10.90;99.90;;;;;;4142583;28;22713;-65
2024/02/14 08:09:55;;;;;;;4.18;2.78;;;11.00;99.90;;;;;;4144374;28;20049;-66
2024/02/14 08:11:55;;;;;;;4.55;2.70;;;11.00;99.90;;;;;;4145028;28;20057;-66
2024/02/14 08:13:56;;;;;;;3.20;2.15;;;11.00;99.90;;;;;;4149909;28;20050;-66
2024/02/14 08:15:58;;;;;;;4.90;2.28;;;11.00;99.90;;;;;;4147329;28;20120;-66
2024/02/14 08:17:59;;;;;;;5.40;2.47;;;11.00;99.90;;;;;;4146314;28;20096;-67
2024/02/14 08:20:00;;;;;;;5.93;2.65;;;11.00;99.90;;;;;;4146273;28;20475;-66
2024/02/14 08:22:01;;;;;;;8.85;2.45;;;11.00;99.90;;;;;;4126584;28;20030;-66
2024/02/14 08:24:01;;;;;;;3.60;2.10;;;11.00;99.90;;;;;;4150514;28;20049;-66
2024/02/14 08:26:05;;;;;;;4.53;2.67;;;11.00;99.90;;;;;;4150672;28;20034;-66
2024/02/14 08:28:07;;;;;;;4.15;2.50;;;11.00;99.90;;;;;;4148346;28;20042;-67
2024/02/14 08:30:08;;;;;;;2.88;2.13;;;11.00;99.90;;;;;;4146000;28;20065;-66
2024/02/14 08:32:09;;;;;;;4.53;2.22;;;11.00;99.90;;;;;;4148223;28;20042;-66
2024/02/14 08:34:09;;;;;;;6.60;2.63;;;11.00;99.90;;;;;;4150378;28;20048;-66
2024/02/14 08:36:10;;;;;;;3.97;2.22;;;11.00;99.90;;;;;;4147397;28;20498;-66
2024/02/14 08:38:11;;;;;;;5.18;2.47;;;11.10;99.90;;;;;;4148177;28;20041;-66
2024/02/14 08:40:12;;;;;;;4.35;2.35;;;11.00;99.90;;;;;;4142984;28;20069;-66
2024/02/14 08:42:12;;;;;;;4.03;2.33;;;11.00;99.90;;;;;;4142897;28;20485;-66
2024/02/14 08:44:13;;;;;;;7.00;2.80;;;11.00;99.90;;;;;;4146530;28;20045;-66
2024/02/14 08:46:14;;;;;;;4.07;2.17;;;11.10;99.90;;;;;;4143636;28;20117;-66
2024/02/14 08:48:15;;;;;;;4.43;2.47;;;11.10;99.90;;;;;;4144281;28;20038;-66
2024/02/14 08:50:15;;;;;;;5.72;2.20;;;11.10;99.90;;;;;;4138698;28;20084;-60
2024/02/14 08:52:16;;;;;;;3.85;2.22;;;11.10;99.90;;;;;;4143042;28;20443;-59
2024/02/14 08:54:17;;;;;;;5.00;2.50;;;11.00;99.90;;;;;;4146840;28;20122;-61
2024/02/14 08:56:18;;;;;;;8.15;2.67;;;11.10;99.90;;;;;;4147833;28;20049;-60
2024/02/14 08:58:18;;;;;;;3.92;2.10;;;11.00;99.90;;;;;;4144518;28;20124;-60
2024/02/14 09:00:19;;;;;;;4.95;1.90;;;11.10;99.90;;;;;;4143777;28;20038;-60
2024/02/14 09:02:22;;;;;;;4.47;2.00;;;11.00;99.90;;;;;;4145447;28;20124;-60
2024/02/14 09:04:23;;;;;;;3.53;2.13;;;11.00;99.90;;;;;;4150373;28;20084;-60
2024/02/14 09:06:24;;;;;;;3.63;2.00;;;11.00;99.90;;;;;;4146427;28;20041;-59
2024/02/14 09:08:24;;;;;;;3.80;1.95;;;11.00;99.90;;;;;;4137514;28;20549;-60
2024/02/14 09:10:25;;;;;;;3.88;2.00;;;11.00;99.90;;;;;;4143045;28;20514;-59
2024/02/14 09:12:25;;;;;;;6.65;2.03;;;11.00;99.90;;;;;;4142574;28;20030;-59
2024/02/14 09:14:26;;;;;;;6.53;2.70;;;11.10;99.90;;;;;;4140566;28;20497;-59
2024/02/14 09:16:27;;;;;;;4.63;1.98;;;11.10;99.90;;;;;;4146052;28;20033;-59
2024/02/14 09:18:27;;;;;;;5.53;2.13;;;11.10;99.90;;;;;;4144245;28;20041;-60
2024/02/14 09:20:29;;;;;;;5.70;2.10;;;11.00;99.90;;;;;;4142371;28;20038;-59
2024/02/14 09:22:30;;;;;;;2.90;2.03;;;11.10;99.90;;;;;;4147180;28;20037;-60
2024/02/14 09:24:30;;;;;;;6.68;2.55;;;11.10;99.90;;;;;;4147201;28;20331;-60
2024/02/14 09:26:31;;;;;;;3.10;1.80;;;11.10;99.90;;;;;;4143134;28;20067;-60
2024/02/14 09:28:34;;;;;;;2.45;2.10;;;11.10;99.90;;;;;;4142005;28;20613;-60
2024/02/14 09:30:35;;;;;;;3.30;2.00;;;11.20;99.90;;;;;;4141857;28;20079;-61
2024/02/14 09:32:36;;;;;;;3.75;2.10;;;11.20;99.90;;;;;;4142422;28;20096;-60
2024/02/14 09:34:36;;;;;;;4.13;2.08;;;11.20;99.90;;;;;;4144663;28;20393;-60
2024/02/14 09:36:38;;;;;;;3.88;2.28;;;11.20;99.90;;;;;;4141373;28;20046;-60
2024/02/14 09:38:40;;;;;;;4.93;2.33;;;11.30;99.90;;;;;;4143959;28;20041;-60
2024/02/14 09:40:41;;;;;;;5.55;2.15;;;11.30;99.90;;;;;;4141273;28;20033;-60
2024/02/14 09:43:01;;;;;;;3.00;1.45;;;11.30;99.90;;;;;;4142741;28;20048;-60
2024/02/14 09:45:02;;;;;;;3.58;2.30;;;11.30;99.90;;;;;;4139710;28;20465;-60
2024/02/14 09:47:05;;;;;;;7.75;2.58;;;11.30;99.90;;;;;;4139586;28;20042;-60
2024/02/14 09:49:06;;;;;;;3.15;1.80;;;11.40;99.90;;;;;;4141504;28;20045;-60
2024/02/14 09:51:07;;;;;;;3.90;1.92;;;11.40;99.90;;;;;;4138912;28;20061;-60
2024/02/14 09:53:10;;;;;;;3.22;1.65;;;11.40;99.90;;;;;;4143630;28;20448;-60
2024/02/14 09:55:11;;;;;;;5.90;1.95;;;11.50;99.90;;;;;;4142169;28;20061;-60
2024/02/14 09:57:16;;;;;;;5.53;2.05;;;11.50;99.90;;;;;;4137398;28;20057;-60
2024/02/14 09:59:17;;;;;;;3.97;1.77;;;11.50;99.90;;;;;;4142752;28;20147;-71
2024/02/14 10:01:20;;;;;;;4.90;2.00;;;11.60;99.90;;;;;;4140725;28;20038;-71
2024/02/14 10:03:21;;;;;;;5.45;1.83;;;11.60;99.90;;;;;;4140995;28;20033;-72
2024/02/14 10:05:22;;;;;;;2.72;1.80;;;11.60;99.90;;;;;;4141782;28;20548;-72
2024/02/14 10:07:22;;;;;;;5.47;2.30;;;11.60;99.90;;;;;;4142617;28;20038;-72
2024/02/14 10:09:25;;;;;;;3.60;1.60;;;11.60;99.90;;;;;;4144146;28;20371;-72
2024/02/14 10:11:27;;;;;;;2.53;1.52;;;11.60;99.90;;;;;;4141060;28;20045;-72
2024/02/14 10:13:28;;;;;;;4.43;1.93;;;11.70;99.90;;;;;;4140997;28;20061;-72
2024/02/14 10:15:30;;;;;;;4.75;1.80;;;11.70;99.90;;;;;;4141744;28;20033;-72
2024/02/14 10:17:33;;;;;;;7.77;2.40;;;11.70;99.90;;;;;;4142048;28;20030;-72
2024/02/14 10:19:34;;;;;;;4.05;2.13;;;11.80;99.90;;;;;;4142411;28;20603;-72
2024/02/14 10:21:34;;;;;;;4.75;1.83;;;11.70;99.90;;;;;;4139561;28;20040;-72
2024/02/14 10:23:35;;;;;;;3.78;1.92;;;11.70;99.90;;;;;;4145041;28;20065;-72
2024/02/14 10:25:36;;;;;;;4.45;1.65;;;11.80;99.90;;;;;;4141049;28;20390;-71
2024/02/14 10:27:37;;;;;;;4.68;1.90;;;11.80;99.90;;;;;;4142321;28;20041;-72
2024/02/14 10:29:38;;;;;;;2.83;1.60;;;11.80;99.90;;;;;;4145189;28;20045;-66
2024/02/14 10:31:40;;;;;;;4.18;1.80;;;11.80;99.90;;;;;;4143902;28;20042;-74